createdAt,value
2022-10-17T00:01:33.690Z,20.10
2022-10-17T00:04:22.518Z,20.20
2022-10-17T00:07:10.006Z,20.10
2022-10-17T00:09:57.520Z,20.10
2022-10-17T00:12:45.096Z,20.20
2022-10-17T00:15:32.936Z,20.30
2022-10-17T00:18:21.081Z,20.40
2022-10-17T00:21:18.044Z,20.60
2022-10-17T00:24:06.031Z,20.70
2022-10-17T00:26:53.494Z,20.70
2022-10-17T00:29:40.984Z,21.00
2022-10-17T00:32:28.724Z,21.10
2022-10-17T00:35:16.748Z,21.10
2022-10-17T00:38:04.185Z,21.10
2022-10-17T00:40:51.712Z,21.10
2022-10-17T00:43:59.298Z,21.40
2022-10-17T00:46:46.735Z,21.40
2022-10-17T00:49:38.722Z,21.40
2022-10-17T00:52:30.727Z,21.40
2022-10-17T00:55:29.725Z,21.50
2022-10-17T00:58:19.045Z,21.40
2022-10-17T01:01:06.577Z,21.40
2022-10-17T01:03:54.009Z,21.40
2022-10-17T01:06:41.461Z,21.30
2022-10-17T01:09:29.134Z,21.20
2022-10-17T01:12:19.332Z,21.10
2022-10-17T01:15:27.774Z,21.00
2022-10-17T01:18:35.570Z,20.90
2022-10-17T01:21:33.580Z,20.80
2022-10-17T01:25:18.290Z,20.80
2022-10-17T01:28:39.398Z,20.70
2022-10-17T01:31:44.783Z,20.70
2022-10-17T01:34:57.979Z,20.60
2022-10-17T01:38:10.539Z,20.30
2022-10-17T01:41:07.085Z,20.10
2022-10-17T01:44:11.689Z,20.10
2022-10-17T01:47:10.314Z,20.10
2022-10-17T01:50:08.804Z,19.90
2022-10-17T01:53:12.399Z,19.80
2022-10-17T01:56:06.214Z,19.80
2022-10-17T01:59:02.954Z,19.80
2022-10-17T02:01:55.605Z,19.80
2022-10-17T02:04:43.945Z,19.80
2022-10-17T02:07:31.533Z,19.50
2022-10-17T02:10:42.404Z,19.50
2022-10-17T02:13:51.473Z,19.40
2022-10-17T02:17:02.980Z,19.30
2022-10-17T02:20:19.974Z,19.20
2022-10-17T02:23:36.660Z,19.20
2022-10-17T02:26:40.977Z,19.10
2022-10-17T02:29:42.568Z,19.00
2022-10-17T02:32:50.499Z,19.00
2022-10-17T02:35:45.319Z,19.00
2022-10-17T02:38:34.834Z,19.10
2022-10-17T02:41:24.568Z,19.20
2022-10-17T02:44:12.530Z,19.50
2022-10-17T02:47:21.884Z,19.80
2022-10-17T02:50:10.090Z,19.90
2022-10-17T02:53:15.875Z,20.00
2022-10-17T02:56:15.890Z,20.20
2022-10-17T02:59:05.435Z,20.10
2022-10-17T03:01:53.512Z,20.20
2022-10-17T03:04:46.175Z,20.10
2022-10-17T03:07:33.625Z,20.30
2022-10-17T03:10:23.064Z,20.10
2022-10-17T03:13:10.994Z,20.00
2022-10-17T03:15:58.494Z,19.90
2022-10-17T03:18:49.298Z,19.80
2022-10-17T03:21:38.319Z,19.80
2022-10-17T03:24:25.862Z,19.50
2022-10-17T03:27:13.465Z,19.50
2022-10-17T03:30:00.989Z,19.50
2022-10-17T03:32:48.440Z,19.30
2022-10-17T03:35:40.545Z,19.20
2022-10-17T03:38:27.985Z,19.10
2022-10-17T03:41:15.760Z,19.00
2022-10-17T03:44:03.549Z,18.90
2022-10-17T03:46:51.050Z,18.70
2022-10-17T03:49:38.555Z,18.70
2022-10-17T03:52:26.000Z,18.60
2022-10-17T03:55:13.434Z,18.70
2022-10-17T03:58:00.860Z,18.70
2022-10-17T04:00:48.804Z,18.70
2022-10-17T04:03:36.669Z,18.80
2022-10-17T04:06:24.320Z,18.90
2022-10-17T04:09:11.901Z,18.90
2022-10-17T04:11:59.439Z,19.00
2022-10-17T04:14:46.855Z,19.10
2022-10-17T04:17:37.328Z,19.10
2022-10-17T04:20:25.850Z,19.50
2022-10-17T04:23:13.322Z,19.60
2022-10-17T04:26:03.489Z,19.60
2022-10-17T04:28:51.672Z,19.70
2022-10-17T04:31:39.110Z,19.70
2022-10-17T04:34:26.540Z,19.80
2022-10-17T04:37:13.970Z,19.90
2022-10-17T04:40:01.446Z,20.10
2022-10-17T04:42:48.881Z,20.30
2022-10-17T04:45:36.294Z,20.30
2022-10-17T04:48:23.799Z,20.30
2022-10-17T04:51:20.618Z,20.30
2022-10-17T04:54:11.068Z,20.60
2022-10-17T04:56:58.486Z,20.60
2022-10-17T04:59:46.431Z,20.70
2022-10-17T05:02:33.886Z,20.40
2022-10-17T05:05:21.401Z,20.60
2022-10-17T05:08:11.147Z,20.60
2022-10-17T05:14:02.685Z,20.60
2022-10-17T05:16:50.127Z,20.60
2022-10-17T05:19:37.634Z,20.60
2022-10-17T05:22:25.170Z,20.60
2022-10-17T05:25:12.629Z,20.50
2022-10-17T05:28:00.149Z,20.50
2022-10-17T05:30:47.661Z,20.50
2022-10-17T05:33:36.454Z,20.40
2022-10-17T05:36:23.894Z,20.60
2022-10-17T05:39:14.923Z,20.50
2022-10-17T05:42:02.430Z,20.40
2022-10-17T05:44:49.895Z,20.50
2022-10-17T05:47:37.403Z,20.40
2022-10-17T05:50:25.334Z,20.40
2022-10-17T05:53:13.126Z,20.40
2022-10-17T05:56:03.679Z,20.60
2022-10-17T05:58:54.073Z,20.50
2022-10-17T06:01:42.991Z,20.50
2022-10-17T06:04:30.427Z,20.60
2022-10-17T06:07:17.865Z,20.70
2022-10-17T06:10:06.439Z,20.70
2022-10-17T06:12:53.916Z,20.70
2022-10-17T06:15:41.380Z,20.80
2022-10-17T06:18:29.375Z,20.70
2022-10-17T06:21:23.740Z,20.80
2022-10-17T06:24:11.280Z,20.90
2022-10-17T06:26:59.090Z,20.90
2022-10-17T06:29:48.455Z,20.80
2022-10-17T06:32:35.896Z,20.90
2022-10-17T06:35:23.410Z,21.10
2022-10-17T06:38:10.845Z,20.80
2022-10-17T06:41:19.445Z,21.10
2022-10-17T06:44:11.441Z,21.00
2022-10-17T06:47:00.840Z,21.10
2022-10-17T06:49:48.300Z,21.00
2022-10-17T06:52:35.739Z,20.70
2022-10-17T06:55:23.445Z,21.10
2022-10-17T06:58:11.100Z,20.70
2022-10-17T07:01:11.756Z,20.90
2022-10-17T07:03:59.269Z,21.00
2022-10-17T07:06:46.815Z,21.00
2022-10-17T07:09:34.479Z,20.80
2022-10-17T07:12:21.940Z,20.90
2022-10-17T07:15:10.148Z,20.40
2022-10-17T07:17:57.560Z,20.40
2022-10-17T07:20:53.834Z,20.80
2022-10-17T07:23:41.720Z,20.70
2022-10-17T07:26:29.245Z,20.70
2022-10-17T07:29:16.755Z,20.80
2022-10-17T07:32:06.595Z,21.00
2022-10-17T07:34:54.264Z,21.00
2022-10-17T07:37:42.051Z,21.00
2022-10-17T07:40:29.526Z,21.20
2022-10-17T07:43:16.970Z,21.10
2022-10-17T07:46:06.019Z,21.30
2022-10-17T07:48:53.469Z,21.10
2022-10-17T07:51:41.074Z,21.40
2022-10-17T07:54:28.585Z,21.30
2022-10-17T07:57:15.989Z,21.00
2022-10-17T08:00:03.770Z,21.20
2022-10-17T08:02:51.202Z,21.20
2022-10-17T08:05:38.640Z,21.30
2022-10-17T08:08:27.451Z,21.60
2022-10-17T08:11:16.453Z,21.40
2022-10-17T08:14:04.076Z,21.30
2022-10-17T08:16:51.525Z,21.10
2022-10-17T08:19:40.559Z,21.40
2022-10-17T08:22:28.397Z,21.10
2022-10-17T08:25:16.100Z,21.10
2022-10-17T08:28:03.603Z,21.30
2022-10-17T08:30:51.040Z,21.40
2022-10-17T08:33:39.195Z,21.60
2022-10-17T08:36:28.724Z,21.90
2022-10-17T08:39:16.140Z,21.60
2022-10-17T08:42:31.080Z,21.90
2022-10-17T08:46:09.126Z,22.00
2022-10-17T08:49:02.346Z,21.90
2022-10-17T08:51:59.455Z,22.10
2022-10-17T08:54:49.020Z,22.30
2022-10-17T08:57:36.596Z,22.30
2022-10-17T09:00:25.454Z,22.20
2022-10-17T09:03:34.868Z,22.30
2022-10-17T09:06:47.181Z,22.00
2022-10-17T09:10:17.271Z,22.30
2022-10-17T09:13:16.924Z,22.40
2022-10-17T09:16:54.900Z,22.20
2022-10-17T09:19:51.452Z,22.60
2022-10-17T09:25:56.105Z,22.80
2022-10-17T09:28:56.457Z,22.90
2022-10-17T09:32:02.741Z,22.90
2022-10-17T09:34:51.335Z,23.00
2022-10-17T09:37:39.170Z,23.00
2022-10-17T09:40:36.860Z,23.00
2022-10-17T09:43:25.251Z,23.00
2022-10-17T09:46:26.442Z,23.00
2022-10-17T09:49:26.109Z,23.10
2022-10-17T09:52:25.050Z,22.90
2022-10-17T09:55:18.727Z,22.80
2022-10-17T09:58:08.706Z,22.90
2022-10-17T10:01:25.622Z,23.10
2022-10-17T10:04:16.716Z,23.10
2022-10-17T10:07:11.374Z,22.20
2022-10-17T10:10:01.036Z,22.10
2022-10-17T10:13:13.126Z,21.90
2022-10-17T10:16:30.821Z,22.60
2022-10-17T10:19:35.500Z,22.40
2022-10-17T10:22:23.926Z,23.10
2022-10-17T10:25:11.331Z,23.60
2022-10-17T10:28:00.818Z,23.80
2022-10-17T10:30:52.499Z,23.90
2022-10-17T10:33:47.027Z,23.80
2022-10-17T10:37:37.303Z,24.10
2022-10-17T10:40:52.820Z,24.10
2022-10-17T10:43:48.720Z,23.80
2022-10-17T10:46:36.599Z,24.10
2022-10-17T10:49:32.960Z,24.60
2022-10-17T10:53:09.530Z,24.70
2022-10-17T10:56:23.544Z,24.50
2022-10-17T10:59:53.883Z,24.80
2022-10-17T11:02:55.100Z,25.30
2022-10-17T11:06:17.153Z,25.30
2022-10-17T11:09:45.027Z,25.40
2022-10-17T11:15:55.361Z,25.40
2022-10-17T11:19:15.107Z,25.60
2022-10-17T11:22:44.350Z,25.70
2022-10-17T11:25:38.985Z,25.90
2022-10-17T11:28:26.787Z,25.60
2022-10-17T11:31:17.451Z,25.60
2022-10-17T11:34:20.242Z,25.60
2022-10-17T11:37:20.667Z,25.70
2022-10-17T11:40:33.895Z,25.70
2022-10-17T11:43:27.570Z,25.80
2022-10-17T11:46:26.941Z,25.70
2022-10-17T11:49:25.017Z,25.80
2022-10-17T11:52:55.314Z,25.40
2022-10-17T11:55:46.730Z,25.70
2022-10-17T11:59:02.112Z,26.10
2022-10-17T12:02:01.031Z,26.40
2022-10-17T12:05:17.625Z,26.40
2022-10-17T12:09:04.935Z,26.40
2022-10-17T12:12:04.141Z,26.50
2022-10-17T12:14:51.932Z,26.40
2022-10-17T12:17:54.525Z,26.50
2022-10-17T12:20:41.980Z,25.90
2022-10-17T12:23:33.349Z,26.40
2022-10-17T12:26:29.870Z,26.20
2022-10-17T12:29:29.997Z,26.20
2022-10-17T12:32:17.591Z,25.90
2022-10-17T12:35:05.772Z,26.30
2022-10-17T12:37:57.315Z,26.50
2022-10-17T12:40:50.626Z,26.60
2022-10-17T12:43:44.794Z,26.80
2022-10-17T12:46:49.620Z,26.60
2022-10-17T12:49:43.486Z,25.80
2022-10-17T12:52:35.273Z,26.10
2022-10-17T12:55:26.787Z,26.70
2022-10-17T12:58:17.099Z,26.70
2022-10-17T13:01:23.276Z,26.90
2022-10-17T13:04:12.577Z,26.80
2022-10-17T13:07:01.416Z,26.70
2022-10-17T13:09:51.459Z,26.80
2022-10-17T13:12:41.350Z,26.70
2022-10-17T13:15:29.655Z,27.00
2022-10-17T13:18:28.050Z,26.80
2022-10-17T13:21:16.735Z,27.00
2022-10-17T13:24:54.234Z,27.00
2022-10-17T13:27:43.103Z,26.80
2022-10-17T13:30:36.695Z,26.30
2022-10-17T13:33:44.402Z,27.00
2022-10-17T13:36:35.139Z,27.00
2022-10-17T13:39:45.586Z,27.10
2022-10-17T13:42:41.545Z,27.00
2022-10-17T13:45:37.021Z,27.10
2022-10-17T13:48:28.341Z,27.00
2022-10-17T13:51:15.885Z,26.80
2022-10-17T13:54:24.325Z,27.00
2022-10-17T13:57:29.503Z,27.20
2022-10-17T14:00:23.215Z,26.40
2022-10-17T14:03:11.470Z,26.40
2022-10-17T14:06:18.567Z,26.30
2022-10-17T14:09:20.214Z,26.70
2022-10-17T14:12:12.905Z,26.90
2022-10-17T14:15:12.415Z,26.70
2022-10-17T14:18:07.970Z,26.90
2022-10-17T14:24:23.775Z,26.60
2022-10-17T14:27:29.753Z,27.00
2022-10-17T14:30:58.126Z,26.70
2022-10-17T14:33:51.157Z,26.90
2022-10-17T14:36:42.861Z,27.00
2022-10-17T14:39:30.490Z,26.80
2022-10-17T14:42:23.673Z,27.00
2022-10-17T14:45:39.215Z,26.60
2022-10-17T14:48:29.420Z,26.10
2022-10-17T14:51:19.205Z,26.30
2022-10-17T14:54:29.951Z,26.30
2022-10-17T14:57:35.030Z,26.10
2022-10-17T15:00:24.284Z,26.30
2022-10-17T15:03:11.854Z,26.30
2022-10-17T15:06:24.754Z,26.30
2022-10-17T15:09:12.639Z,26.20
2022-10-17T15:12:07.997Z,26.10
2022-10-17T15:14:55.499Z,26.00
2022-10-17T15:20:32.440Z,25.80
2022-10-17T15:23:20.832Z,25.80
2022-10-17T15:26:16.989Z,25.70
2022-10-17T15:29:05.128Z,25.60
2022-10-17T15:31:52.745Z,25.60
2022-10-17T15:34:40.870Z,25.40
2022-10-17T15:37:34.526Z,25.40
2022-10-17T15:40:30.445Z,25.20
2022-10-17T15:43:19.827Z,25.10
2022-10-17T15:46:25.346Z,25.00
2022-10-17T15:49:17.279Z,24.90
2022-10-17T15:52:05.857Z,24.80
2022-10-17T15:54:54.598Z,24.60
2022-10-17T15:57:45.196Z,24.50
2022-10-17T16:00:32.685Z,24.30
2022-10-17T16:03:23.122Z,24.20
2022-10-17T16:06:13.498Z,24.00
2022-10-17T16:09:01.764Z,23.80
2022-10-17T16:11:49.199Z,23.70
2022-10-17T16:14:37.029Z,23.60
2022-10-17T16:17:24.535Z,23.50
2022-10-17T16:20:13.587Z,23.40
2022-10-17T16:23:03.120Z,23.20
2022-10-17T16:25:51.784Z,23.10
2022-10-17T16:28:42.414Z,23.00
2022-10-17T16:31:42.334Z,22.80
2022-10-17T16:34:30.919Z,22.70
2022-10-17T16:37:18.964Z,22.60
2022-10-17T16:40:07.026Z,22.50
2022-10-17T16:42:54.484Z,22.40
2022-10-17T16:45:42.049Z,22.40
2022-10-17T16:48:29.868Z,22.30
2022-10-17T16:51:20.341Z,22.20
2022-10-17T16:54:09.845Z,22.10
2022-10-17T16:57:00.435Z,22.10
2022-10-17T16:59:47.903Z,22.10
2022-10-17T17:02:35.428Z,22.00
2022-10-17T17:05:23.105Z,22.00
2022-10-17T17:08:12.565Z,21.90
2022-10-17T17:11:00.774Z,21.90
2022-10-17T17:13:49.074Z,21.80
2022-10-17T17:16:36.574Z,21.80
2022-10-17T17:19:24.221Z,21.70
2022-10-17T17:22:11.744Z,21.60
2022-10-17T17:24:59.194Z,21.50
2022-10-17T17:27:46.640Z,21.40
2022-10-17T17:30:34.984Z,21.40
2022-10-17T17:33:24.654Z,21.40
2022-10-17T17:36:20.910Z,21.30
2022-10-17T17:39:12.440Z,21.20
2022-10-17T17:41:59.884Z,21.20
2022-10-17T17:44:48.609Z,21.20
2022-10-17T17:47:36.049Z,21.20
2022-10-17T17:50:23.470Z,21.20
2022-10-17T17:53:14.070Z,21.20
2022-10-17T17:56:08.224Z,21.20
2022-10-17T17:59:02.234Z,21.10
2022-10-17T18:01:49.828Z,21.10
2022-10-17T18:04:37.336Z,21.10
2022-10-17T18:07:24.934Z,21.00
2022-10-17T18:13:03.111Z,20.90
2022-10-17T18:15:51.971Z,21.00
2022-10-17T18:18:45.295Z,20.90
2022-10-17T18:21:33.435Z,20.90
2022-10-17T18:24:20.942Z,20.90
2022-10-17T18:27:08.415Z,20.90
2022-10-17T18:29:56.345Z,20.90
2022-10-17T18:32:43.799Z,20.90
2022-10-17T18:35:32.276Z,20.80
2022-10-17T18:38:19.725Z,20.90
2022-10-17T18:41:15.571Z,20.70
2022-10-17T18:44:03.217Z,20.70
2022-10-17T18:46:51.244Z,20.70
2022-10-17T18:49:38.837Z,20.60
2022-10-17T18:52:26.335Z,20.60
2022-10-17T18:55:14.852Z,20.50
2022-10-17T18:58:02.289Z,20.50
2022-10-17T19:00:51.451Z,20.50
2022-10-17T19:03:39.006Z,20.40
2022-10-17T19:06:31.954Z,20.30
2022-10-17T19:09:19.753Z,20.40
2022-10-17T19:12:07.145Z,20.30
2022-10-17T19:14:56.301Z,20.30
2022-10-17T19:17:43.755Z,20.30
2022-10-17T19:20:31.286Z,20.20
2022-10-17T19:23:19.180Z,20.20
2022-10-17T19:26:11.619Z,20.20
2022-10-17T19:29:00.640Z,20.10
2022-10-17T19:31:49.472Z,20.10
2022-10-17T19:34:37.780Z,20.10
2022-10-17T19:37:25.395Z,20.00
2022-10-17T19:40:13.990Z,20.00
2022-10-17T19:43:01.435Z,20.00
2022-10-17T19:46:04.105Z,20.00
2022-10-17T19:48:52.770Z,20.00
2022-10-17T19:51:40.559Z,20.00
2022-10-17T19:54:28.094Z,20.00
2022-10-17T19:57:15.475Z,19.90
2022-10-17T20:00:03.923Z,19.80
2022-10-17T20:02:51.389Z,19.70
2022-10-17T20:05:39.226Z,19.70
2022-10-17T20:11:26.231Z,19.60
2022-10-17T20:14:13.730Z,19.60
2022-10-17T20:17:01.191Z,19.50
2022-10-17T20:19:48.894Z,19.40
2022-10-17T20:22:36.370Z,19.40
2022-10-17T20:25:24.036Z,19.30
2022-10-17T20:28:12.042Z,19.30
2022-10-17T20:30:59.589Z,19.30
2022-10-17T20:33:46.977Z,19.20
2022-10-17T20:36:37.249Z,19.20
2022-10-17T20:39:25.038Z,19.20
2022-10-17T20:42:12.445Z,19.10
2022-10-17T20:45:00.012Z,19.00
2022-10-17T20:47:52.462Z,19.00
2022-10-17T20:50:40.496Z,18.90
2022-10-17T20:53:43.068Z,18.80
2022-10-17T20:56:32.912Z,18.80
2022-10-17T20:59:20.834Z,18.70
2022-10-17T21:02:12.328Z,18.70
2022-10-17T21:04:59.760Z,18.60
2022-10-17T21:07:49.950Z,18.60
2022-10-17T21:10:37.379Z,18.60
2022-10-17T21:13:24.869Z,18.60
2022-10-17T21:16:18.845Z,18.50
2022-10-17T21:19:06.945Z,18.40
2022-10-17T21:21:54.490Z,18.30
2022-10-17T21:24:41.940Z,18.20
2022-10-17T21:27:29.525Z,18.30
2022-10-17T21:30:17.105Z,18.20
2022-10-17T21:33:04.539Z,18.10
2022-10-17T21:35:55.400Z,18.10
2022-10-17T21:38:45.314Z,18.10
2022-10-17T21:41:33.281Z,18.10
2022-10-17T21:44:25.122Z,18.10
2022-10-17T21:47:14.951Z,18.10
2022-10-17T21:50:02.361Z,18.20
2022-10-17T21:52:49.836Z,18.20
2022-10-17T21:55:37.981Z,18.30
2022-10-17T21:58:25.412Z,18.40
2022-10-17T22:01:21.038Z,18.30
2022-10-17T22:04:16.302Z,18.20
2022-10-17T22:07:03.765Z,18.10
2022-10-17T22:09:51.194Z,18.10
2022-10-17T22:12:38.654Z,18.20
2022-10-17T22:15:26.120Z,18.20
2022-10-17T22:18:13.940Z,18.20
2022-10-17T22:21:09.065Z,18.10
2022-10-17T22:24:02.853Z,18.20
2022-10-17T22:26:50.910Z,18.10
2022-10-17T22:29:39.831Z,18.20
2022-10-17T22:32:27.260Z,18.20
2022-10-17T22:35:14.850Z,18.30
2022-10-17T22:38:02.504Z,18.30
2022-10-17T22:40:49.941Z,18.40
2022-10-17T22:43:37.550Z,18.50
2022-10-17T22:46:25.950Z,18.60
2022-10-17T22:49:13.426Z,18.60
2022-10-17T22:52:00.881Z,18.60
2022-10-17T22:54:49.460Z,18.80
2022-10-17T22:57:36.956Z,18.70
2022-10-17T23:00:24.569Z,18.80
2022-10-17T23:03:12.104Z,18.80
2022-10-17T23:05:59.957Z,18.90
2022-10-17T23:08:48.324Z,19.00
2022-10-17T23:11:35.979Z,18.90
2022-10-17T23:14:23.480Z,19.00
2022-10-17T23:17:12.756Z,19.10
2022-10-17T23:20:00.272Z,19.10
2022-10-17T23:22:47.794Z,19.20
2022-10-17T23:25:35.599Z,19.20
2022-10-17T23:28:23.134Z,19.20
2022-10-17T23:31:20.581Z,19.20
2022-10-17T23:34:08.159Z,19.20
2022-10-17T23:36:55.841Z,19.10
2022-10-17T23:39:43.364Z,19.20
2022-10-17T23:42:30.884Z,19.20
2022-10-17T23:45:18.546Z,19.20
2022-10-17T23:48:06.324Z,19.10
2022-10-17T23:50:54.895Z,19.20
2022-10-17T23:53:42.414Z,19.20
2022-10-17T23:56:29.945Z,19.20
2022-10-17T23:59:17.489Z,19.20
